Time;durP1;ratioP1;P1;durP2;ratioP2;P2;SDS_P1;SDS_P2;PMS_P1;PMS_P2;Temp;Humidity;BMP_temperature;BMP_pressure;BME280_temperature;BME280_humidity;BME280_pressure;Samples;Min_cycle;Max_cycle;Signal;HPM_P1;HPM_P2
2021/06/04 00:00:38;;;;;;;;;;;;;;;11.82;100.00;99587.81;5074335;28;19928;-82
2021/06/04 00:03:06;;;;;;;;;;;;;;;11.76;100.00;99595.09;5075670;28;19993;-82
2021/06/04 00:05:36;;;;;;;;;;;;;;;11.70;100.00;99591.19;5061488;28;19925;-82
2021/06/04 00:08:04;;;;;;;;;;;;;;;11.57;100.00;99592.88;5075599;28;20329;-81
2021/06/04 00:10:33;;;;;;;;;;;;;;;11.61;100.00;99602.06;5074532;28;19924;-81
2021/06/04 00:13:19;;;;;;;;;;;;;;;11.69;100.00;99597.97;5066331;28;19924;-81
2021/06/04 00:15:47;;;;;;;;;;;;;;;11.70;100.00;99599.59;5073302;28;19924;-81
2021/06/04 00:18:15;;;;;;;;;;;;;;;11.70;100.00;99602.38;5065198;28;19974;-81
2021/06/04 00:20:43;;;;;;;;;;;;;;;11.64;100.00;99594.84;5071683;28;20302;-81
2021/06/04 00:23:10;;;;;;;;;;;;;;;11.52;100.00;99593.38;5074110;28;19925;-81
2021/06/04 00:25:37;;;;;;;;;;;;;;;11.51;100.00;99596.59;5060067;28;20287;-81
2021/06/04 00:28:05;;;;;;;;;;;;;;;11.52;100.00;99601.75;5075590;28;19955;-82
2021/06/04 00:30:32;;;;;;;;;;;;;;;11.55;100.00;99605.72;5073683;28;20015;-82
2021/06/04 00:32:59;;;;;;;;;;;;;;;11.58;100.00;99593.69;5075145;28;20002;-81
2021/06/04 00:35:26;;;;;;;;;;;;;;;11.61;100.00;99599.25;5073683;28;20013;-81
2021/06/04 00:37:54;;;;;;;;;;;;;;;11.49;100.00;99591.41;5074923;28;20013;-81
2021/06/04 00:40:26;;;;;;;;;;;;;;;11.42;100.00;99593.50;5075023;28;20022;-81
2021/06/04 00:42:54;;;;;;;;;;;;;;;11.29;100.00;99590.41;5107568;28;20268;-82
2021/06/04 00:45:25;;;;;;;;;;;;;;;11.22;100.00;99596.09;5056649;28;19928;-81
2021/06/04 00:47:53;;;;;;;;;;;;;;;11.22;100.00;99598.09;5057017;28;19978;-81
2021/06/04 00:50:26;;;;;;;;;;;;;;;11.18;100.00;99598.13;5073200;28;19932;-82
2021/06/04 00:52:54;;;;;;;;;;;;;;;11.17;100.00;99599.34;5107494;28;20294;-81
2021/06/04 00:55:22;;;;;;;;;;;;;;;11.10;100.00;99602.22;5106946;28;19924;-82
2021/06/04 00:57:49;;;;;;;;;;;;;;;11.01;100.00;99601.09;5074621;28;19930;-82
2021/06/04 01:00:22;;;;;;;;;;;;;;;10.78;100.00;99607.28;5074436;28;19928;-81
2021/06/04 01:02:51;;;;;;;;;;;;;;;10.68;100.00;99599.75;5057444;28;19924;-82
2021/06/04 01:05:20;;;;;;;;;;;;;;;10.66;100.00;99613.38;5074226;28;19931;-82
2021/06/04 01:07:55;;;;;;;;;;;;;;;10.61;100.00;99613.81;5074469;28;19932;-81
2021/06/04 01:10:34;;;;;;;;;;;;;;;10.47;100.00;99616.69;5057392;28;19937;-81
2021/06/04 01:13:14;;;;;;;;;;;;;;;10.45;100.00;99622.69;5052862;28;19925;-81
2021/06/04 01:15:47;;;;;;;;;;;;;;;10.45;100.00;99622.69;5053438;28;20050;-81
2021/06/04 01:18:29;;;;;;;;;;;;;;;10.48;100.00;99626.69;5053302;28;20078;-81
2021/06/04 01:21:09;;;;;;;;;;;;;;;10.49;100.00;99628.25;5053576;28;19951;-81
2021/06/04 01:23:37;;;;;;;;;;;;;;;10.48;100.00;99630.25;5054042;28;19932;-81
2021/06/04 01:26:17;;;;;;;;;;;;;;;10.46;100.00;99629.88;5052849;28;19924;-81
2021/06/04 01:28:50;;;;;;;;;;;;;;;10.47;100.00;99627.88;5086260;28;19932;-81
2021/06/04 01:31:19;;;;;;;;;;;;;;;10.47;100.00;99630.66;5052741;28;19956;-81
2021/06/04 01:33:51;;;;;;;;;;;;;;;10.43;100.00;99629.91;5036155;28;19925;-82
2021/06/04 01:36:24;;;;;;;;;;;;;;;10.44;100.00;99623.09;5036838;28;19929;-81
2021/06/04 01:38:56;;;;;;;;;;;;;;;10.45;100.00;99619.91;5069853;28;20367;-81
2021/06/04 01:41:28;;;;;;;;;;;;;;;10.40;100.00;99614.75;5052585;28;19924;-82
2021/06/04 01:44:03;;;;;;;;;;;;;;;10.33;100.00;99614.78;5053729;28;19928;-81
2021/06/04 01:46:35;;;;;;;;;;;;;;;10.31;100.00;99622.81;5068948;28;20366;-81
2021/06/04 01:49:13;;;;;;;;;;;;;;;10.34;100.00;99612.81;5052460;28;19970;-81
2021/06/04 01:51:53;;;;;;;;;;;;;;;10.33;100.00;99609.19;5054009;28;20283;-81
2021/06/04 01:54:41;;;;;;;;;;;;;;;10.32;100.00;99616.00;5049463;28;20303;-81
2021/06/04 01:57:13;;;;;;;;;;;;;;;10.34;100.00;99610.00;5040616;28;19932;-82
2021/06/04 01:59:45;;;;;;;;;;;;;;;10.36;100.00;99618.78;5051630;28;19928;-82
2021/06/04 02:02:24;;;;;;;;;;;;;;;10.36;100.00;99608.38;5052513;28;20394;-82
2021/06/04 02:04:54;;;;;;;;;;;;;;;10.27;100.00;99607.28;5017204;28;19929;-81
2021/06/04 02:07:25;;;;;;;;;;;;;;;10.22;100.00;99607.69;5052416;28;19924;-81
2021/06/04 02:09:54;;;;;;;;;;;;;;;10.17;100.00;99606.13;5052262;28;19925;-81
2021/06/04 02:12:26;;;;;;;;;;;;;;;10.09;100.00;99609.34;5053368;28;19925;-81
2021/06/04 02:15:12;;;;;;;;;;;;;;;10.13;100.00;99616.50;5055579;28;20036;-81
2021/06/04 02:17:46;;;;;;;;;;;;;;;10.10;100.00;99616.53;5054304;28;19928;-82
2021/06/04 02:20:29;;;;;;;;;;;;;;;10.10;100.00;99617.31;5052283;28;19924;-81
2021/06/04 02:23:07;;;;;;;;;;;;;;;10.17;100.00;99616.47;5052359;28;19982;-82
2021/06/04 02:25:36;;;;;;;;;;;;;;;10.24;100.00;99620.03;5068750;28;20272;-82
2021/06/04 02:28:08;;;;;;;;;;;;;;;10.24;100.00;99622.81;5032433;28;20015;-84
2021/06/04 02:30:58;;;;;;;;;;;;;;;10.24;100.00;99619.22;5065260;28;19949;-82
2021/06/04 02:33:31;;;;;;;;;;;;;;;10.32;100.00;99615.19;5052173;28;19925;-82
2021/06/04 02:36:03;;;;;;;;;;;;;;;10.49;100.00;99622.66;5035271;28;19929;-81
2021/06/04 02:38:35;;;;;;;;;;;;;;;10.61;100.00;99630.56;5085335;28;19925;-82
2021/06/04 02:41:06;;;;;;;;;;;;;;;10.62;100.00;99620.97;5053117;28;20394;-81
2021/06/04 02:43:42;;;;;;;;;;;;;;;10.54;100.00;99625.81;5053836;28;19925;-81
2021/06/04 02:46:29;;;;;;;;;;;;;;;10.39;100.00;99610.34;5068508;28;19960;-81
2021/06/04 02:48:57;;;;;;;;;;;;;;;10.31;100.00;99610.81;5051941;28;19925;-82
2021/06/04 02:51:24;;;;;;;;;;;;;;;10.26;100.00;99608.44;5015272;28;20389;-81
2021/06/04 02:53:53;;;;;;;;;;;;;;;10.19;100.00;99608.50;5043587;28;19935;-81
2021/06/04 02:56:21;;;;;;;;;;;;;;;10.14;100.00;99594.97;5052748;28;19983;-81
2021/06/04 02:58:54;;;;;;;;;;;;;;;9.99;100.00;99607.38;5053100;28;19924;-82
2021/06/04 03:01:22;;;;;;;;;;;;;;;9.96;100.00;99606.22;5053009;28;19971;-81
2021/06/04 03:03:52;;;;;;;;;;;;;;;10.00;100.00;99606.16;5084597;28;19955;-81
2021/06/04 03:06:24;;;;;;;;;;;;;;;10.01;100.00;99618.94;5051733;28;20371;-81
2021/06/04 03:09:00;;;;;;;;;;;;;;;9.95;100.00;99609.41;5068400;28;20326;-81
2021/06/04 03:11:31;;;;;;;;;;;;;;;9.89;100.00;99603.44;5037672;28;19929;-81
2021/06/04 03:13:59;;;;;;;;;;;;;;;9.82;100.00;99599.88;5056834;28;19932;-82
2021/06/04 03:16:27;;;;;;;;;;;;;;;9.76;100.00;99595.91;5070486;28;20419;-82
2021/06/04 03:18:59;;;;;;;;;;;;;;;9.77;100.00;99608.69;5056574;28;19925;-81
2021/06/04 03:21:31;;;;;;;;;;;;;;;9.73;100.00;99599.53;5055395;28;20395;-81
2021/06/04 03:24:00;;;;;;;;;;;;;;;9.74;100.00;99598.34;5055355;28;19924;-82
2021/06/04 03:26:29;;;;;;;;;;;;;;;9.81;100.00;99598.31;5056535;28;20375;-81
2021/06/04 03:28:57;;;;;;;;;;;;;;;9.84;100.00;99592.72;5056090;28;20334;-81
2021/06/04 03:31:26;;;;;;;;;;;;;;;9.85;100.00;99599.88;5056208;28;20376;-82
2021/06/04 03:33:55;;;;;;;;;;;;;;;9.80;100.00;99600.28;5055193;28;20314;-82
2021/06/04 03:36:26;;;;;;;;;;;;;;;9.79;100.00;99606.28;5056356;28;20283;-82
2021/06/04 03:38:54;;;;;;;;;;;;;;;9.80;100.00;99602.28;5035050;28;19975;-82
2021/06/04 03:41:24;;;;;;;;;;;;;;;9.68;100.00;99605.53;5054996;28;19951;-81
2021/06/04 03:43:52;;;;;;;;;;;;;;;9.53;100.00;99613.16;5054867;28;20023;-81
2021/06/04 03:46:21;;;;;;;;;;;;;;;9.64;100.00;99611.13;5071295;28;19925;-81
2021/06/04 03:48:50;;;;;;;;;;;;;;;9.56;100.00;99614.34;5054909;28;19964;-81
2021/06/04 03:51:21;;;;;;;;;;;;;;;9.65;100.00;99617.50;5071345;28;20010;-81
2021/06/04 03:53:48;;;;;;;;;;;;;;;9.61;100.00;99616.72;5056126;28;19932;-81
2021/06/04 03:56:17;;;;;;;;;;;;;;;9.55;100.00;99618.31;5055779;28;19925;-82
2021/06/04 03:58:44;;;;;;;;;;;;;;;9.53;100.00;99620.72;5054648;28;20583;-81
2021/06/04 04:01:20;;;;;;;;;;;;;;;9.57;100.00;99624.31;5054528;28;20000;-81
2021/06/04 04:03:48;;;;;;;;;;;;;;;9.57;100.00;99621.50;5055778;28;20015;-82
2021/06/04 04:06:15;;;;;;;;;;;;;;;9.68;100.00;99620.25;5055559;28;19924;-81
2021/06/04 04:08:44;;;;;;;;;;;;;;;9.63;100.00;99633.84;5087664;28;19931;-81
2021/06/04 04:11:11;;;;;;;;;;;;;;;9.67;100.00;99629.03;5054104;28;20303;-82
2021/06/04 04:13:39;;;;;;;;;;;;;;;9.80;100.00;99636.56;5054086;28;20018;-81
2021/06/04 04:16:08;;;;;;;;;;;;;;;9.77;100.00;99636.59;5055500;28;19960;-81
2021/06/04 04:18:35;;;;;;;;;;;;;;;9.66;100.00;99631.06;5055160;28;19928;-82
2021/06/04 04:21:05;;;;;;;;;;;;;;;9.53;100.00;99632.69;5054907;28;20005;-81
2021/06/04 04:23:35;;;;;;;;;;;;;;;9.57;100.00;99635.47;5054104;28;19932;-81
2021/06/04 04:26:04;;;;;;;;;;;;;;;9.57;100.00;99627.91;5055593;28;19967;-81
2021/06/04 04:28:33;;;;;;;;;;;;;;;9.67;100.00;99626.25;5053863;28;20024;-81
2021/06/04 04:31:01;;;;;;;;;;;;;;;9.62;100.00;99633.03;5054075;28;19925;-82
2021/06/04 04:33:28;;;;;;;;;;;;;;;9.74;100.00;99637.41;5087639;28;20356;-81
2021/06/04 04:35:56;;;;;;;;;;;;;;;9.75;100.00;99636.19;5053810;28;20419;-81
2021/06/04 04:38:23;;;;;;;;;;;;;;;9.74;100.00;99634.63;5054860;28;20067;-82
2021/06/04 04:41:01;;;;;;;;;;;;;;;9.84;100.00;99636.56;5053627;28;19929;-82
2021/06/04 04:43:29;;;;;;;;;;;;;;;9.79;100.00;99639.75;5055231;28;19970;-81
2021/06/04 04:45:56;;;;;;;;;;;;;;;9.74;100.00;99654.94;5055019;28;20406;-82
2021/06/04 04:48:25;;;;;;;;;;;;;;;9.50;100.00;99649.41;5054944;28;20260;-81
2021/06/04 04:50:55;;;;;;;;;;;;;;;9.46;100.00;99649.44;5054903;28;20278;-81
2021/06/04 04:53:23;;;;;;;;;;;;;;;9.50;100.00;99650.22;5055354;28;20016;-82
2021/06/04 04:55:50;;;;;;;;;;;;;;;9.62;100.00;99647.00;5055124;28;19932;-81
2021/06/04 04:58:18;;;;;;;;;;;;;;;9.62;100.00;99640.63;5020019;28;20291;-81
2021/06/04 05:00:47;;;;;;;;;;;;;;;9.62;100.00;99635.06;5047617;28;19979;-82
2021/06/04 05:03:15;;;;;;;;;;;;;;;9.81;100.00;99637.38;5054951;28;19931;-82
2021/06/04 05:05:42;;;;;;;;;;;;;;;9.96;100.00;99633.31;5053229;28;20429;-82
2021/06/04 05:08:10;;;;;;;;;;;;;;;10.09;100.00;99632.47;5054570;28;19925;-81
2021/06/04 05:10:37;;;;;;;;;;;;;;;10.04;100.00;99627.28;5054507;28;19974;-81
2021/06/04 05:13:05;;;;;;;;;;;;;;;10.02;100.00;99635.28;5054482;28;20019;-82
2021/06/04 05:15:33;;;;;;;;;;;;;;;10.07;100.00;99634.09;5070258;28;19924;-82
2021/06/04 05:18:01;;;;;;;;;;;;;;;10.02;100.00;99626.09;5053701;28;19925;-82
2021/06/04 05:20:28;;;;;;;;;;;;;;;10.07;100.00;99625.72;5053234;28;19925;-82
2021/06/04 05:22:57;;;;;;;;;;;;;;;10.23;100.00;99628.81;5053360;28;19990;-82
2021/06/04 05:25:33;;;;;;;;;;;;;;;10.28;100.00;99623.63;5036799;28;19925;-82
2021/06/04 05:28:01;;;;;;;;;;;;;;;10.32;100.00;99624.38;5033249;28;19925;-82
2021/06/04 05:30:30;;;;;;;;;;;;;;;10.33;100.00;99617.59;5049503;28;19925;-82
2021/06/04 05:32:57;;;;;;;;;;;;;;;10.43;100.00;99618.72;5053483;28;20372;-82
2021/06/04 05:35:26;;;;;;;;;;;;;;;10.57;100.00;99618.63;5053902;28;19925;-81
2021/06/04 05:37:53;;;;;;;;;;;;;;;10.58;100.00;99618.22;5040209;28;20253;-82
2021/06/04 05:40:22;;;;;;;;;;;;;;;10.84;100.00;99623.19;5054039;28;19924;-81
2021/06/04 05:42:50;;;;;;;;;;;;;;;10.97;100.00;99615.09;5052971;28;19924;-82
2021/06/04 05:45:20;;;;;;;;;;;;;;;11.56;100.00;99619.31;5053971;28;19929;-81
2021/06/04 05:47:48;;;;;;;;;;;;;;;11.84;100.00;99618.22;5052274;28;19925;-81
2021/06/04 05:50:20;;;;;;;;;;;;;;;12.14;100.00;99613.41;5053630;28;19928;-81
2021/06/04 05:52:48;;;;;;;;;;;;;;;12.63;100.00;99620.31;5029702;28;19936;-87
2021/06/04 05:55:18;;;;;;;;;;;;;;;13.21;100.00;99621.78;4999326;28;19932;-87
2021/06/04 05:57:45;;;;;;;;;;;;;;;13.56;100.00;99607.88;5053766;28;20438;-91
2021/06/04 06:00:15;;;;;;;;;;;;;;;14.04;100.00;99605.28;5073524;28;19936;-90
2021/06/04 06:02:44;;;;;;;;;;;;;;;14.28;100.00;99597.56;5047192;28;19959;-90
2021/06/04 06:05:12;;;;;;;;;;;;;;;13.96;100.00;99600.25;5051989;28;20062;-89
2021/06/04 06:07:39;;;;;;;;;;;;;;;14.56;100.00;99613.78;5083330;28;19925;-90
2021/06/04 06:10:07;;;;;;;;;;;;;;;15.06;100.00;99624.63;5036639;28;19924;-90
2021/06/04 06:12:34;;;;;;;;;;;;;;;14.80;100.00;99620.06;5046400;28;20015;-89
2021/06/04 06:15:02;;;;;;;;;;;;;;;15.35;100.00;99619.84;5084506;28;19925;-89
2021/06/04 06:17:29;;;;;;;;;;;;;;;14.90;100.00;99617.00;5019729;28;19937;-90
2021/06/04 06:19:56;;;;;;;;;;;;;;;15.01;100.00;99623.13;5046011;28;20419;-89
2021/06/04 06:22:23;;;;;;;;;;;;;;;14.58;100.00;99619.78;5082893;28;20548;-89
2021/06/04 06:24:51;;;;;;;;;;;;;;;14.44;100.00;99628.53;5032874;28;19932;-89
2021/06/04 06:27:19;;;;;;;;;;;;;;;14.38;100.00;99627.44;5066375;28;19928;-90
2021/06/04 06:29:46;;;;;;;;;;;;;;;14.44;100.00;99625.72;5034341;28;19924;-88
2021/06/04 06:32:18;;;;;;;;;;;;;;;14.55;100.00;99629.06;5068692;28;19928;-87
2021/06/04 06:34:46;;;;;;;;;;;;;;;14.43;100.00;99629.75;5052574;28;19931;-88
2021/06/04 06:37:13;;;;;;;;;;;;;;;14.23;100.00;99632.59;5052534;28;19924;-87
2021/06/04 06:39:40;;;;;;;;;;;;;;;13.86;100.00;99632.16;5068657;28;20030;-88
2021/06/04 06:42:07;;;;;;;;;;;;;;;14.28;100.00;99628.50;5035645;28;20009;-87
2021/06/04 06:44:35;;;;;;;;;;;;;;;14.50;100.00;99632.41;5052525;28;19951;-86
2021/06/04 06:47:02;;;;;;;;;;;;;;;15.05;100.00;99631.50;5072841;28;20439;-86
2021/06/04 06:49:29;;;;;;;;;;;;;;;15.81;100.00;99634.28;5057126;28;19929;-89
2021/06/04 06:51:57;;;;;;;;;;;;;;;17.51;100.00;99624.91;5056092;28;20004;-86
2021/06/04 06:54:26;;;;;;;;;;;;;;;18.81;100.00;99626.44;5043708;28;20350;-86
2021/06/04 06:56:54;;;;;;;;;;;;;;;19.64;100.00;99629.81;5072348;28;19932;-86
2021/06/04 06:59:23;;;;;;;;;;;;;;;20.38;100.00;99643.53;5058180;28;20031;-84
2021/06/04 07:01:50;;;;;;;;;;;;;;;20.57;100.00;99641.44;5062330;28;19971;-85
2021/06/04 07:04:18;;;;;;;;;;;;;;;19.70;100.00;99642.09;5076423;28;20343;-85
2021/06/04 07:06:45;;;;;;;;;;;;;;;19.42;100.00;99648.22;5063385;28;19952;-85
2021/06/04 07:09:14;;;;;;;;;;;;;;;18.84;100.00;99653.06;5050380;28;19933;-84
2021/06/04 07:11:50;;;;;;;;;;;;;;;19.01;100.00;99646.66;5053932;28;19959;-84
2021/06/04 07:14:18;;;;;;;;;;;;;;;19.20;100.00;99653.97;5053685;28;19932;-84
2021/06/04 07:16:46;;;;;;;;;;;;;;;19.95;100.00;99651.59;5069123;28;19925;-84
2021/06/04 07:19:13;;;;;;;;;;;;;;;19.53;100.00;99660.69;5056526;28;19929;-83
2021/06/04 07:21:41;;;;;;;;;;;;;;;19.61;100.00;99667.59;5053726;28;19932;-81
2021/06/04 07:24:14;;;;;;;;;;;;;;;19.20;100.00;99675.84;5052816;28;20344;-84
2021/06/04 07:26:43;;;;;;;;;;;;;;;18.81;100.00;99673.81;5053599;28;19978;-84
2021/06/04 07:29:10;;;;;;;;;;;;;;;18.29;100.00;99671.72;5053167;28;19924;-82
2021/06/04 07:31:38;;;;;;;;;;;;;;;18.21;100.00;99678.09;5040460;28;20299;-82
2021/06/04 07:34:06;;;;;;;;;;;;;;;17.71;100.00;99690.41;5061100;28;19948;-82
2021/06/04 07:36:37;;;;;;;;;;;;;;;17.70;100.00;99691.66;5063297;28;20003;-82
2021/06/04 07:39:08;;;;;;;;;;;;;;;17.90;100.00;99687.28;5088634;28;19977;-81
2021/06/04 07:41:36;;;;;;;;;;;;;;;18.68;100.00;99688.03;5071652;28;19995;-82
2021/06/04 07:44:04;;;;;;;;;;;;;;;19.24;100.00;99690.63;5062313;28;19924;-81
2021/06/04 07:46:33;;;;;;;;;;;;;;;19.66;100.00;99686.84;5066978;28;19924;-82
2021/06/04 07:49:00;;;;;;;;;;;;;;;19.59;100.00;99692.03;5061507;28;19947;-81
2021/06/04 07:51:30;;;;;;;;;;;;;;;19.53;100.00;99694.69;5068124;28;20263;-80
2021/06/04 07:53:57;;;;;;;;;;;;;;;19.14;100.00;99689.84;5060855;28;20273;-82
2021/06/04 07:56:25;;;;;;;;;;;;;;;18.52;100.00;99702.41;5055162;28;20299;-84
2021/06/04 07:58:52;;;;;;;;;;;;;;;18.49;100.00;99711.84;5057691;28;19928;-84
2021/06/04 08:01:20;;;;;;;;;;;;;;;18.22;100.00;99700.25;5072837;28;20600;-84
2021/06/04 08:03:47;;;;;;;;;;;;;;;18.60;100.00;99712.19;5052996;28;19931;-84
2021/06/04 08:06:16;;;;;;;;;;;;;;;19.11;100.00;99701.31;5071217;28;19932;-85
2021/06/04 08:08:43;;;;;;;;;;;;;;;18.91;100.00;99698.84;5036930;28;20355;-85
2021/06/04 08:11:17;;;;;;;;;;;;;;;19.48;100.00;99708.69;5033413;28;20376;-85
2021/06/04 08:13:45;;;;;;;;;;;;;;;19.66;100.00;99714.38;5053985;28;20257;-85
2021/06/04 08:16:13;;;;;;;;;;;;;;;19.86;100.00;99703.41;5038507;28;19956;-85
2021/06/04 08:18:41;;;;;;;;;;;;;;;20.42;100.00;99711.47;5056660;28;20384;-85
2021/06/04 08:21:11;;;;;;;;;;;;;;;20.72;100.00;99716.16;5032955;28;19932;-85
2021/06/04 08:23:40;;;;;;;;;;;;;;;20.88;100.00;99707.28;5064117;28;19925;-85
2021/06/04 08:26:09;;;;;;;;;;;;;;;19.99;100.00;99703.25;5052934;28;19924;-84
2021/06/04 08:28:36;;;;;;;;;;;;;;;18.88;100.00;99711.13;5054127;28;19970;-85
2021/06/04 08:31:03;;;;;;;;;;;;;;;18.65;100.00;99722.94;5054006;28;20027;-85
2021/06/04 08:33:32;;;;;;;;;;;;;;;18.35;100.00;99723.63;5052940;28;19929;-85
2021/06/04 08:35:59;;;;;;;;;;;;;;;18.18;100.00;99713.75;5032666;28;19925;-85
2021/06/04 08:38:32;;;;;;;;;;;;;;;17.83;100.00;99731.97;5044423;28;19987;-85
2021/06/04 08:41:10;;;;;;;;;;;;;;;18.02;100.00;99728.09;5069332;28;19925;-85
2021/06/04 08:43:50;;;;;;;;;;;;;;;18.03;100.00;99724.00;5036260;28;19933;-84
2021/06/04 08:46:26;;;;;;;;;;;;;;;17.91;100.00;99728.47;5088621;28;19971;-85
2021/06/04 08:48:53;;;;;;;;;;;;;;;18.19;100.00;99728.69;5085675;28;20449;-85
2021/06/04 08:51:35;;;;;;;;;;;;;;;18.09;100.00;99727.03;5052380;28;19925;-86
2021/06/04 08:54:21;;;;;;;;;;;;;;;18.36;100.00;99728.03;5052091;28;20868;-87
2021/06/04 08:56:54;;;;;;;;;;;;;;;18.13;100.00;99720.00;5053292;28;19931;-86
2021/06/04 08:59:21;;;;;;;;;;;;;;;17.46;100.00;99730.81;5046732;28;19925;-86
2021/06/04 09:01:57;;;;;;;;;;;;;;;17.55;100.00;99718.84;5062978;28;19931;-86
2021/06/04 09:04:27;;;;;;;;;;;;;;;17.33;100.00;99720.75;5052254;28;19924;-86
2021/06/04 09:07:01;;;;;;;;;;;;;;;17.07;100.00;99719.19;5053227;28;20281;-86
2021/06/04 09:09:35;;;;;;;;;;;;;;;16.96;100.00;99724.38;5051840;28;19929;-89
2021/06/04 09:12:23;;;;;;;;;;;;;;;17.45;100.00;99723.59;5085126;28;19925;-88
2021/06/04 09:14:52;;;;;;;;;;;;;;;18.06;100.00;99719.47;5024105;28;19928;-90
2021/06/04 09:17:26;;;;;;;;;;;;;;;18.11;100.00;99713.22;5021716;28;20018;-85
2021/06/04 09:19:56;;;;;;;;;;;;;;;17.93;100.00;99716.69;5048216;28;20380;-85
2021/06/04 09:22:24;;;;;;;;;;;;;;;17.54;100.00;99709.56;5031222;28;19960;-86
2021/06/04 09:24:52;;;;;;;;;;;;;;;17.67;100.00;99723.66;5047125;28;19932;-85
2021/06/04 09:27:30;;;;;;;;;;;;;;;18.06;100.00;99716.63;5049712;28;20025;-85
2021/06/04 09:30:06;;;;;;;;;;;;;;;18.02;100.00;99713.94;5046341;28;19971;-85
2021/06/04 09:32:33;;;;;;;;;;;;;;;17.60;100.00;99712.59;5046851;28;19948;-85
2021/06/04 09:35:12;;;;;;;;;;;;;;;17.16;100.00;99731.38;5034072;28;19974;-82
2021/06/04 09:37:40;;;;;;;;;;;;;;;16.64;100.00;99724.56;5049955;28;20006;-82
2021/06/04 09:40:23;;;;;;;;;;;;;;;16.94;100.00;99724.03;5051442;28;19929;-83
2021/06/04 09:42:59;;;;;;;;;;;;;;;17.47;100.00;99720.31;5077029;28;20466;-87
2021/06/04 09:45:26;;;;;;;;;;;;;;;17.39;100.00;99713.28;5064256;28;20020;-86
2021/06/04 09:48:05;;;;;;;;;;;;;;;17.59;100.00;99711.03;5061983;28;20056;-82
2021/06/04 09:50:35;;;;;;;;;;;;;;;17.93;100.00;99706.16;5048430;28;19924;-81
2021/06/04 09:53:06;;;;;;;;;;;;;;;18.11;100.00;99708.38;5049469;28;19925;-85
2021/06/04 09:55:37;;;;;;;;;;;;;;;17.59;100.00;99708.19;5049293;28;19925;-83
2021/06/04 09:58:10;;;;;;;;;;;;;;;17.87;100.00;99710.06;5047407;28;19975;-80
2021/06/04 10:01:03;;;;;;;;;;;;;;;17.67;100.00;99712.38;5068656;28;20439;-81
2021/06/04 10:03:36;;;;;;;;;;;;;;;17.68;100.00;99722.41;5029352;28;19932;-81
2021/06/04 10:06:06;;;;;;;;;;;;;;;17.82;100.00;99705.78;5048937;28;19936;-82
2021/06/04 10:08:40;;;;;;;;;;;;;;;18.02;100.00;99707.50;5082737;28;19928;-91
2021/06/04 10:11:16;;;;;;;;;;;;;;;18.18;100.00;99702.44;5045719;28;19934;-82
2021/06/04 10:13:53;;;;;;;;;;;;;;;18.23;100.00;99701.06;5064931;28;20505;-84
2021/06/04 10:16:47;;;;;;;;;;;;;;;17.91;100.00;99694.53;5048164;28;19929;-87
2021/06/04 10:19:23;;;;;;;;;;;;;;;17.68;100.00;99711.09;5036012;28;19939;-84
2021/06/04 10:22:05;;;;;;;;;;;;;;;17.65;100.00;99720.50;5054053;28;19925;-83
2021/06/04 10:24:35;;;;;;;;;;;;;;;17.74;100.00;99714.94;5051472;28;19925;-82
2021/06/04 10:27:04;;;;;;;;;;;;;;;18.04;100.00;99705.78;5085943;28;20009;-81
2021/06/04 10:29:31;;;;;;;;;;;;;;;18.01;100.00;99695.38;5053797;28;19925;-91
2021/06/04 10:32:05;;;;;;;;;;;;;;;17.80;100.00;99713.09;5055775;28;19928;-90
2021/06/04 10:34:56;;;;;;;;;;;;;;;17.93;100.00;99720.31;5038911;28;19931;-91
2021/06/04 10:37:28;;;;;;;;;;;;;;;18.09;100.00;99704.41;5038836;28;19932;-91
2021/06/04 10:40:00;;;;;;;;;;;;;;;17.88;100.00;99697.47;5020170;28;19951;-92
2021/06/04 10:42:45;;;;;;;;;;;;;;;17.56;100.00;99711.94;5038429;28;19931;-92
2021/06/04 10:45:34;;;;;;;;;;;;;;;17.71;100.00;99713.03;5069549;28;20074;-88
2021/06/04 10:48:04;;;;;;;;;;;;;;;17.91;100.00;99702.22;5038168;28;20301;-90
2021/06/04 10:50:34;;;;;;;;;;;;;;;17.76;100.00;99701.94;5070752;28;19968;-92
2021/06/04 10:53:02;;;;;;;;;;;;;;;17.46;100.00;99707.44;5072726;28;19925;-83
2021/06/04 10:55:56;;;;;;;;;;;;;;;17.50;100.00;99700.44;5054710;28;19924;-84
2021/06/04 10:58:23;;;;;;;;;;;;;;;17.82;100.00;99714.25;5039832;28;20327;-87
2021/06/04 11:00:51;;;;;;;;;;;;;;;17.80;100.00;99710.28;5061272;28;19944;-86
2021/06/04 11:03:20;;;;;;;;;;;;;;;18.27;100.00;99707.38;5051301;28;19932;-86
2021/06/04 11:05:52;;;;;;;;;;;;;;;18.40;100.00;99696.81;5076376;28;19924;-87
2021/06/04 11:08:38;;;;;;;;;;;;;;;18.42;100.00;99695.09;5022555;28;19924;-86
2021/06/04 11:11:24;;;;;;;;;;;;;;;18.58;100.00;99686.41;5063656;28;20397;-87
2021/06/04 11:14:10;;;;;;;;;;;;;;;18.74;100.00;99686.19;5054812;28;20360;-87
2021/06/04 11:16:41;;;;;;;;;;;;;;;18.02;100.00;99688.50;5072382;28;19925;-87
2021/06/04 11:19:14;;;;;;;;;;;;;;;18.14;100.00;99690.50;5055427;28;19932;-87
2021/06/04 11:21:47;;;;;;;;;;;;;;;18.32;100.00;99690.63;5054094;28;19925;-87
2021/06/04 11:24:30;;;;;;;;;;;;;;;18.25;100.00;99668.22;5103803;28;19931;-87
2021/06/04 11:26:57;;;;;;;;;;;;;;;18.23;100.00;99676.41;5103924;28;19925;-87
2021/06/04 11:29:30;;;;;;;;;;;;;;;18.60;100.00;99678.22;5079618;28;19929;-86
2021/06/04 11:32:12;;;;;;;;;;;;;;;18.65;100.00;99674.81;5054805;28;19936;-87
2021/06/04 11:34:59;;;;;;;;;;;;;;;18.88;100.00;99671.47;5055767;28;20081;-87
2021/06/04 11:37:42;;;;;;;;;;;;;;;19.22;100.00;99674.09;5031638;28;20018;-87
2021/06/04 11:40:16;;;;;;;;;;;;;;;19.34;100.00;99666.78;5055437;28;20364;-87
2021/06/04 11:42:43;;;;;;;;;;;;;;;19.04;100.00;99657.06;5059297;28;19925;-87
2021/06/04 11:45:10;;;;;;;;;;;;;;;18.42;100.00;99649.84;5055638;28;19932;-86
2021/06/04 11:47:38;;;;;;;;;;;;;;;18.49;100.00;99651.59;5060673;28;20380;-87
2021/06/04 11:50:07;;;;;;;;;;;;;;;18.90;100.00;99654.78;5057067;28;19975;-87
2021/06/04 11:52:42;;;;;;;;;;;;;;;19.19;100.00;99654.44;5058965;28;19929;-82
2021/06/04 11:55:13;;;;;;;;;;;;;;;19.63;100.00;99653.75;5054623;28;20030;-86
2021/06/04 11:57:44;;;;;;;;;;;;;;;19.64;100.00;99665.91;5054558;28;20384;-85
2021/06/04 12:00:14;;;;;;;;;;;;;;;19.45;100.00;99667.09;5021670;28;20012;-85
2021/06/04 12:02:44;;;;;;;;;;;;;;;19.07;100.00;99661.78;5071480;28;19947;-85
2021/06/04 12:05:29;;;;;;;;;;;;;;;19.01;100.00;99660.03;5037918;28;19947;-85
2021/06/04 12:08:15;;;;;;;;;;;;;;;19.13;100.00;99665.59;5021928;28;19935;-87
2021/06/04 12:10:51;;;;;;;;;;;;;;;19.06;100.00;99671.53;5054341;28;19925;-86
2021/06/04 12:13:35;;;;;;;;;;;;;;;19.35;100.00;99665.53;5071224;28;19931;-86
2021/06/04 12:16:21;;;;;;;;;;;;;;;19.11;100.00;99675.81;5054540;28;20011;-86
2021/06/04 12:19:01;;;;;;;;;;;;;;;19.15;100.00;99663.09;5054219;28;19925;-85
2021/06/04 12:21:34;;;;;;;;;;;;;;;19.10;100.00;99660.84;5054458;28;20443;-85
2021/06/04 12:24:02;;;;;;;;;;;;;;;18.99;100.00;99665.38;5054177;28;19925;-85
2021/06/04 12:26:32;;;;;;;;;;;;;;;18.96;100.00;99661.41;5054074;28;19929;-85
2021/06/04 12:28:59;;;;;;;;;;;;;;;18.83;100.00;99669.25;5053663;28;19929;-85
2021/06/04 12:31:33;;;;;;;;;;;;;;;18.68;100.00;99662.56;5036959;28;20463;-86
2021/06/04 12:34:01;;;;;;;;;;;;;;;18.62;100.00;99667.25;5053333;28;20403;-86
2021/06/04 12:36:49;;;;;;;;;;;;;;;18.82;100.00;99667.66;5037601;28;20265;-87
2021/06/04 12:39:29;;;;;;;;;;;;;;;19.09;100.00;99670.63;5053990;28;19932;-87
2021/06/04 12:42:14;;;;;;;;;;;;;;;19.33;100.00;99663.16;5053929;28;19956;-85
2021/06/04 12:44:56;;;;;;;;;;;;;;;19.75;100.00;99666.19;5053376;28;20015;-87
2021/06/04 12:47:29;;;;;;;;;;;;;;;19.76;100.00;99656.47;5037241;28;19932;-86
2021/06/04 12:50:05;;;;;;;;;;;;;;;19.41;100.00;99652.31;5040426;28;20284;-87
2021/06/04 12:52:33;;;;;;;;;;;;;;;19.16;100.00;99652.53;5053662;28;19925;-86
2021/06/04 12:55:15;;;;;;;;;;;;;;;18.93;100.00;99648.19;5053641;28;19924;-86
2021/06/04 12:57:43;;;;;;;;;;;;;;;18.59;100.00;99656.84;5037375;28;19931;-86
2021/06/04 13:00:14;;;;;;;;;;;;;;;18.52;100.00;99642.19;5036591;28;19947;-85